createdAt,value
2023-03-18T00:01:11.339Z,99432.53
2023-03-18T00:03:43.710Z,99434.56
2023-03-18T00:06:16.962Z,99435.13
2023-03-18T00:08:50.110Z,99440.47
2023-03-18T00:11:21.029Z,99449.66
2023-03-18T00:13:51.012Z,99454.50
2023-03-18T00:19:01.663Z,99453.25
2023-03-18T00:21:31.079Z,99460.94
2023-03-18T00:26:47.132Z,99479.56
2023-03-18T00:29:15.560Z,99476.00
2023-03-18T00:31:55.797Z,99482.38
2023-03-18T00:34:26.307Z,99484.44
2023-03-18T00:36:59.106Z,99496.41
2023-03-18T00:39:30.048Z,99496.91
2023-03-18T00:41:59.583Z,99498.44
2023-03-18T00:47:24.987Z,99491.88
2023-03-18T00:49:59.279Z,99495.69
2023-03-18T00:52:30.078Z,99508.44
2023-03-18T00:55:13.410Z,99505.91
2023-03-18T00:57:52.599Z,99499.78
2023-03-18T01:00:27.598Z,99500.00
2023-03-18T01:03:02.921Z,99501.03
2023-03-18T01:05:35.363Z,99510.97
2023-03-18T01:08:14.241Z,99511.22
2023-03-18T01:10:45.204Z,99514.78
2023-03-18T01:13:22.220Z,99519.91
2023-03-18T01:15:51.311Z,99527.78
2023-03-18T01:18:20.060Z,99520.38
2023-03-18T01:23:31.954Z,99533.88
2023-03-18T01:26:11.568Z,99542.28
2023-03-18T01:28:49.776Z,99541.72
2023-03-18T01:34:06.228Z,99534.81
2023-03-18T01:36:40.911Z,99540.16
2023-03-18T01:39:10.142Z,99536.03
2023-03-18T01:41:39.291Z,99542.38
2023-03-18T01:47:06.107Z,99538.75
2023-03-18T01:49:46.697Z,99544.59
2023-03-18T01:52:29.189Z,99538.16
2023-03-18T01:55:15.898Z,99536.59
2023-03-18T01:57:57.089Z,99540.66
2023-03-18T02:00:32.331Z,99541.94
2023-03-18T02:03:04.534Z,99543.41
2023-03-18T02:05:33.116Z,99543.41
2023-03-18T02:08:02.203Z,99549.50
2023-03-18T02:13:17.979Z,99553.25
2023-03-18T02:16:23.246Z,99557.03
2023-03-18T02:18:55.521Z,99564.13
2023-03-18T02:21:48.639Z,99557.19
2023-03-18T02:27:41.629Z,99568.28
2023-03-18T02:30:25.673Z,99573.88
2023-03-18T02:32:59.590Z,99578.44
2023-03-18T02:35:32.470Z,99577.63
2023-03-18T02:38:13.250Z,99585.47
2023-03-18T02:46:36.547Z,99579.91
2023-03-18T02:49:09.410Z,99588.84
2023-03-18T02:51:39.952Z,99588.00
2023-03-18T02:54:16.838Z,99590.75
2023-03-18T02:56:48.813Z,99588.91
2023-03-18T02:59:23.176Z,99586.25
2023-03-18T03:07:32.434Z,99577.78
2023-03-18T03:10:03.000Z,99576.16
2023-03-18T03:15:15.116Z,99574.19
2023-03-18T03:17:45.115Z,99574.88
2023-03-18T03:20:45.980Z,99568.13
2023-03-18T03:23:24.781Z,99561.84
2023-03-18T03:25:54.229Z,99562.78
2023-03-18T03:28:30.182Z,99560.63
2023-03-18T03:33:46.690Z,99543.72
2023-03-18T03:47:10.597Z,99529.59
2023-03-18T03:49:39.072Z,99532.34
2023-03-18T03:55:00.880Z,99524.00
2023-03-18T03:57:34.227Z,99516.72
2023-03-18T04:00:14.629Z,99514.31
2023-03-18T04:05:31.835Z,99510.53
2023-03-18T04:08:05.071Z,99499.13
2023-03-18T04:10:38.542Z,99498.25
2023-03-18T04:15:59.260Z,99494.16
2023-03-18T04:18:27.811Z,99485.75
2023-03-18T04:21:00.379Z,99476.41
2023-03-18T04:23:33.115Z,99475.72
2023-03-18T04:26:04.589Z,99470.69
2023-03-18T04:28:34.515Z,99459.28
2023-03-18T04:31:13.005Z,99465.56
2023-03-18T04:33:41.975Z,99452.81
2023-03-18T04:36:10.956Z,99451.94
2023-03-18T04:38:41.227Z,99449.53
2023-03-18T04:43:52.830Z,99440.44
2023-03-18T04:46:24.862Z,99439.75
2023-03-18T04:48:55.675Z,99428.53
2023-03-18T04:51:24.221Z,99429.91
2023-03-18T04:53:53.050Z,99425.59
2023-03-18T04:56:21.503Z,99412.84
2023-03-18T04:58:49.954Z,99413.25
2023-03-18T05:01:18.385Z,99408.97
2023-03-18T05:03:46.814Z,99394.09
2023-03-18T05:06:23.954Z,99391.13
2023-03-18T05:08:53.838Z,99387.56
2023-03-18T05:14:16.103Z,99366.88
2023-03-18T05:16:45.723Z,99357.66
2023-03-18T05:19:22.314Z,99345.63
2023-03-18T05:24:58.048Z,99334.91
2023-03-18T05:27:29.279Z,99325.13
2023-03-18T05:29:57.987Z,99325.69
2023-03-18T05:32:27.439Z,99312.88
2023-03-18T05:34:55.759Z,99315.53
2023-03-18T05:37:24.137Z,99308.34
2023-03-18T05:39:52.764Z,99300.44
2023-03-18T05:42:21.957Z,99291.78
2023-03-18T05:44:51.492Z,99286.66
2023-03-18T05:47:26.298Z,99275.50
2023-03-18T05:50:05.633Z,99274.56
2023-03-18T05:52:44.367Z,99259.41
2023-03-18T05:55:33.324Z,99261.50
2023-03-18T05:58:04.167Z,99256.97
2023-03-18T06:00:38.176Z,99247.69
2023-03-18T06:03:12.707Z,99247.50
2023-03-18T06:06:02.478Z,99242.00
2023-03-18T06:08:40.173Z,99231.41
2023-03-18T06:11:26.612Z,99235.41
2023-03-18T06:16:38.599Z,99219.84
2023-03-18T06:19:07.867Z,99205.25
2023-03-18T06:21:36.249Z,99200.69
2023-03-18T06:24:04.613Z,99198.41
2023-03-18T06:26:32.946Z,99191.03
2023-03-18T06:29:01.289Z,99184.00
2023-03-18T06:31:35.742Z,99180.03
2023-03-18T06:34:14.151Z,99176.78
2023-03-18T06:36:50.848Z,99166.75
2023-03-18T06:45:05.775Z,99145.63
2023-03-18T06:47:39.256Z,99143.53
2023-03-18T06:50:07.920Z,99138.78
2023-03-18T06:55:23.940Z,99118.91
2023-03-18T07:00:35.896Z,99111.06
2023-03-18T07:03:26.541Z,99107.06
2023-03-18T07:06:00.577Z,99105.16
2023-03-18T07:08:31.433Z,99104.56
2023-03-18T07:14:03.015Z,99102.69
2023-03-18T07:19:27.828Z,99093.16
2023-03-18T07:22:01.512Z,99089.91
2023-03-18T07:24:29.899Z,99085.94
2023-03-18T07:26:58.645Z,99078.91
2023-03-18T07:29:27.166Z,99072.06
2023-03-18T07:31:56.050Z,99069.22
2023-03-18T07:34:25.167Z,99056.91
2023-03-18T07:36:53.896Z,99056.34
2023-03-18T07:39:25.446Z,99053.66
2023-03-18T07:47:28.345Z,99041.53
2023-03-18T07:50:09.103Z,99037.94
2023-03-18T08:11:50.927Z,98998.16
2023-03-18T08:14:19.443Z,98987.38
2023-03-18T08:16:47.784Z,98986.78
2023-03-18T08:19:16.797Z,98977.34
2023-03-18T08:21:45.309Z,98976.59
2023-03-18T08:24:13.642Z,98965.03
2023-03-18T08:26:42.318Z,98957.25
2023-03-18T08:34:36.516Z,98952.41
2023-03-18T08:42:40.349Z,98942.78
2023-03-18T08:50:42.462Z,98948.28
2023-03-18T09:04:29.052Z,98934.00
2023-03-18T09:07:05.509Z,98933.84
2023-03-18T09:09:43.435Z,98927.97
2023-03-18T09:15:09.132Z,98925.22
2023-03-18T09:20:26.943Z,98926.03
2023-03-18T09:22:58.383Z,98919.44
2023-03-18T09:25:28.039Z,98917.91
2023-03-18T09:27:56.506Z,98921.19
2023-03-18T09:30:26.706Z,98908.69
2023-03-18T09:32:55.781Z,98920.47
2023-03-18T09:35:24.223Z,98915.78
2023-03-18T09:37:59.603Z,98918.09
2023-03-18T09:44:01.301Z,98917.06
2023-03-18T09:46:45.885Z,98907.88
2023-03-18T09:49:58.776Z,98917.91
2023-03-18T09:52:49.035Z,98921.56
2023-03-18T09:55:25.954Z,98917.44
2023-03-18T09:58:04.545Z,98915.56
2023-03-18T10:00:37.919Z,98917.31
2023-03-18T10:03:32.902Z,98907.50
2023-03-18T10:06:17.697Z,98917.00
2023-03-18T10:09:00.323Z,98918.56
2023-03-18T10:11:38.325Z,98916.69
2023-03-18T10:14:29.230Z,98916.91
2023-03-18T10:17:16.512Z,98913.53
2023-03-18T10:20:01.915Z,98915.22
2023-03-18T10:23:13.754Z,98915.84
2023-03-18T10:25:58.175Z,98912.47
2023-03-18T10:28:38.860Z,98920.41
2023-03-18T10:31:41.974Z,98917.59
2023-03-18T10:34:24.907Z,98917.06
2023-03-18T10:37:34.985Z,98912.19
2023-03-18T10:40:16.505Z,98917.84
2023-03-18T10:45:35.072Z,98923.53
2023-03-18T10:51:40.537Z,98910.53
2023-03-18T10:54:26.133Z,98913.94
2023-03-18T10:56:54.538Z,98912.44
2023-03-18T10:59:26.967Z,98909.56
2023-03-18T11:02:15.813Z,98907.31
2023-03-18T11:04:50.742Z,98918.47
2023-03-18T11:07:27.007Z,98906.34
2023-03-18T11:09:57.988Z,98903.53
2023-03-18T11:12:31.326Z,98908.44
2023-03-18T11:17:55.458Z,98916.09
2023-03-18T11:26:55.449Z,98929.00
2023-03-18T11:29:39.933Z,98941.63
2023-03-18T11:47:33.751Z,98946.63
2023-03-18T11:50:18.164Z,98950.19
2023-03-18T11:53:02.146Z,98955.22
2023-03-18T11:55:58.562Z,98965.16
2023-03-18T11:58:36.160Z,98966.03
2023-03-18T12:01:14.666Z,98979.00
2023-03-18T12:04:15.469Z,98979.88
2023-03-18T12:07:14.876Z,98986.97
2023-03-18T12:10:14.349Z,98986.13
2023-03-18T12:13:20.670Z,98996.06
2023-03-18T12:15:58.803Z,98998.25
2023-03-18T12:19:02.304Z,99003.50
2023-03-18T12:21:48.563Z,99010.03
2023-03-18T12:24:51.424Z,99019.38
2023-03-18T12:27:43.376Z,99026.44
2023-03-18T12:30:37.516Z,99028.09
2023-03-18T12:33:23.878Z,99024.31
2023-03-18T12:42:52.970Z,99029.63
2023-03-18T12:45:28.003Z,99035.81
2023-03-18T12:50:59.297Z,99041.56
2023-03-18T12:53:45.781Z,99040.38
2023-03-18T12:56:29.082Z,99040.19
2023-03-18T12:59:20.503Z,99052.53
2023-03-18T13:02:04.698Z,99052.88
2023-03-18T13:04:36.964Z,99050.94
2023-03-18T13:07:17.821Z,99053.56
2023-03-18T13:09:49.770Z,99051.78
2023-03-18T13:18:56.522Z,99057.88
2023-03-18T13:21:41.786Z,99062.56
2023-03-18T13:27:29.190Z,99078.06
2023-03-18T13:36:01.210Z,99102.59
2023-03-18T13:39:25.698Z,99105.22
2023-03-18T13:42:08.231Z,99111.94
2023-03-18T13:44:46.371Z,99101.19
2023-03-18T13:47:25.080Z,99098.16
2023-03-18T13:50:28.549Z,99094.38
2023-03-18T13:58:30.183Z,99103.69
2023-03-18T14:03:54.467Z,99122.50
2023-03-18T14:12:40.395Z,99148.59
2023-03-18T14:18:00.957Z,99156.16
2023-03-18T14:20:43.941Z,99154.91
2023-03-18T14:23:36.711Z,99162.91
2023-03-18T14:35:36.522Z,99182.00
2023-03-18T14:41:22.265Z,99185.44
2023-03-18T14:52:41.006Z,99205.81
2023-03-18T14:55:28.868Z,99213.78
2023-03-18T15:03:38.295Z,99216.53
2023-03-18T15:09:19.228Z,99206.63
2023-03-18T15:11:53.039Z,99215.59
2023-03-18T15:14:57.385Z,99214.59
2023-03-18T15:17:53.112Z,99218.97
2023-03-18T15:28:54.194Z,99219.38
2023-03-18T15:31:26.700Z,99225.84
2023-03-18T15:34:22.650Z,99221.81
2023-03-18T15:39:48.943Z,99214.19
2023-03-18T15:48:05.842Z,99221.19
2023-03-18T15:56:18.776Z,99211.31
2023-03-18T15:58:58.023Z,99211.63
2023-03-18T16:01:40.825Z,99217.00
2023-03-18T16:07:33.941Z,99207.13
2023-03-18T16:21:16.346Z,99195.88
2023-03-18T16:23:47.692Z,99195.13
2023-03-18T16:26:35.391Z,99190.03
2023-03-18T16:29:04.824Z,99187.75
2023-03-18T16:31:33.215Z,99189.00
2023-03-18T16:34:01.594Z,99179.56
2023-03-18T16:36:36.253Z,99182.88
2023-03-18T16:39:21.044Z,99181.38
2023-03-18T16:41:50.769Z,99181.38
2023-03-18T16:44:24.641Z,99173.47
2023-03-18T16:46:58.467Z,99183.94
2023-03-18T16:49:32.164Z,99173.75
2023-03-18T16:52:02.807Z,99181.94
2023-03-18T16:54:34.523Z,99173.28
2023-03-18T16:57:08.504Z,99170.25
2023-03-18T16:59:52.434Z,99173.06
2023-03-18T17:02:46.202Z,99166.69
2023-03-18T17:05:17.847Z,99165.16
2023-03-18T17:07:46.638Z,99152.41
2023-03-18T17:10:17.574Z,99149.38
2023-03-18T17:15:55.652Z,99139.19
2023-03-18T17:27:00.516Z,99113.25
2023-03-18T17:29:54.647Z,99104.81
2023-03-18T17:35:22.038Z,99099.78
2023-03-18T17:41:02.848Z,99091.44
2023-03-18T17:43:40.347Z,99099.63
2023-03-18T17:54:32.985Z,99087.72
2023-03-18T17:57:19.961Z,99091.03
2023-03-18T17:59:51.821Z,99082.63
2023-03-18T18:02:34.334Z,99075.50
2023-03-18T18:05:02.674Z,99075.50
2023-03-18T18:07:31.010Z,99069.88
2023-03-18T18:10:01.830Z,99062.75
2023-03-18T18:12:30.453Z,99065.53
2023-03-18T18:14:58.781Z,99065.53
2023-03-18T18:17:27.181Z,99060.69
2023-03-18T18:19:55.660Z,99054.56
2023-03-18T18:22:27.506Z,99063.75
2023-03-18T18:25:01.816Z,99054.03
2023-03-18T18:35:52.065Z,99034.63
2023-03-18T18:38:24.985Z,99030.53
2023-03-18T18:41:21.795Z,99026.97
2023-03-18T18:43:50.751Z,99030.03
2023-03-18T18:46:19.329Z,99027.47
2023-03-18T18:48:49.827Z,99026.16
2023-03-18T18:51:21.222Z,99019.03
2023-03-18T18:53:51.546Z,99022.38
2023-03-18T18:56:24.088Z,99021.09
2023-03-18T18:58:53.775Z,99020.31
2023-03-18T19:01:22.331Z,99020.84
2023-03-18T19:03:50.839Z,99030.28
2023-03-18T19:06:33.511Z,99026.25
2023-03-18T19:17:28.550Z,99032.00
2023-03-18T19:19:58.331Z,99043.50
2023-03-18T19:25:21.701Z,99040.75
2023-03-18T19:30:35.600Z,99034.13
2023-03-18T19:33:15.387Z,99040.28
2023-03-18T19:35:51.814Z,99032.91
2023-03-18T19:38:24.025Z,99031.38
2023-03-18T19:43:47.366Z,99049.78
2023-03-18T19:46:21.312Z,99054.41
2023-03-18T19:48:49.637Z,99065.91
2023-03-18T19:51:18.170Z,99058.75
2023-03-18T19:53:48.016Z,99062.59
2023-03-18T19:56:36.759Z,99072.28
2023-03-18T19:59:07.072Z,99063.09
2023-03-18T20:04:21.845Z,99053.94
2023-03-18T20:06:59.779Z,99048.84
2023-03-18T20:09:39.532Z,99063.63
2023-03-18T20:12:44.648Z,99066.94
2023-03-18T20:15:19.446Z,99060.59
2023-03-18T20:18:13.421Z,99050.13
2023-03-18T20:31:46.581Z,99060.38
2023-03-18T20:43:22.918Z,99051.50
2023-03-18T20:45:57.677Z,99052.78
2023-03-18T20:54:23.877Z,99044.91
2023-03-18T20:56:55.526Z,99048.19
2023-03-18T20:59:23.986Z,99065.00
2023-03-18T21:01:52.381Z,99059.16
2023-03-18T21:04:20.762Z,99055.59
2023-03-18T21:06:49.634Z,99062.22
2023-03-18T21:09:18.489Z,99060.69
2023-03-18T21:14:31.419Z,99075.75
2023-03-18T21:20:22.239Z,99080.59
2023-03-18T21:23:07.663Z,99083.16
2023-03-18T21:25:36.490Z,99084.44
2023-03-18T21:28:10.865Z,99079.88
2023-03-18T21:33:42.573Z,99078.34
2023-03-18T21:52:47.610Z,99086.25
2023-03-18T21:55:21.905Z,99080.41
2023-03-18T21:58:01.368Z,99082.47
2023-03-18T22:00:35.031Z,99091.38
2023-03-18T22:05:52.560Z,99097.50
2023-03-18T22:11:16.404Z,99111.03
2023-03-18T22:14:04.718Z,99113.56
2023-03-18T22:16:33.246Z,99118.91
2023-03-18T22:19:01.769Z,99113.81
2023-03-18T22:21:30.229Z,99115.63
2023-03-18T22:24:00.928Z,99112.56
2023-03-18T22:34:42.382Z,99139.34
2023-03-18T22:48:40.553Z,99164.56
2023-03-18T22:51:34.938Z,99165.06
2023-03-18T22:54:23.646Z,99170.69
2023-03-18T23:02:20.521Z,99193.59
2023-03-18T23:07:40.339Z,99215.75
2023-03-18T23:10:22.982Z,99218.56
2023-03-18T23:13:35.368Z,99220.34
2023-03-18T23:16:06.352Z,99216.00
2023-03-18T23:18:35.408Z,99220.81
2023-03-18T23:21:03.818Z,99226.44
2023-03-18T23:26:17.362Z,99227.22
2023-03-18T23:28:46.517Z,99232.81
2023-03-18T23:31:16.136Z,99232.81
2023-03-18T23:33:45.504Z,99244.03
2023-03-18T23:36:14.185Z,99245.03
2023-03-18T23:38:45.690Z,99244.53
2023-03-18T23:41:17.341Z,99245.28
2023-03-18T23:43:46.644Z,99254.69
2023-03-18T23:46:26.258Z,99254.94
2023-03-18T23:59:52.066Z,99267.13
